Latest Weather Observations for Port Macquarie Airport

IDN60801

Issued at 10:32 am EDT Tuesday 17 October 2017 (issued every 30 minutes, with the page automatically refreshed every 10 minutes)

About weather observations | Map of weather stations | Latest weather observations for NSW | Other Formats
Station Details ID: 060139 Name: PORT MACQUARIE AIRPORT AWS Lat: -31.43 Lon: 152.87 Height: 4.2 m
Data from the previous 72 hours. | See also: Recent months at Port Macquarie Airport
Date/Time
EDT
Temp
°C
App
Temp
°C
Dew
Point
°C
Rel
Hum
%
Delta-T
°C
Wind Press
QNH
hPa
Press
MSL
hPa
Rain since
9am
mm
Dir  Spd
km/h
Gust
km/h
Spd
kts
Gust
kts
17/10:30am 22.2 19.6 13.8 59 4.9 E 20 28 11 15 1027.1 1027.1 0.0
17/10:00am 22.1 19.7 15.5 66 3.9 E 22 30 12 16 1027.2 1027.2 0.0
17/09:30am 22.1 19.9 15.0 64 4.2 E 20 32 11 17 1027.2 1027.2 0.0
17/09:00am 21.5 18.7 14.4 64 4.1 ESE 22 32 12 17 1027.1 1027.1 0.0
17/08:30am 21.5 19.3 14.4 64 4.2 E 19 28 10 15 1027.1 1027.1 0.0
17/08:00am 20.9 19.0 14.3 66 3.8 E 17 24 9 13 1027.1 1027.1 0.0
17/07:30am 20.4 18.9 14.3 68 3.5 E 15 20 8 11 1027.0 1027.0 0.0
17/07:00am 20.0 17.9 13.5 66 3.7 E 17 22 9 12 1026.6 1026.6 0.0
17/06:30am 19.8 17.3 13.5 67 3.6 E 19 28 10 15 1026.2 1026.2 0.0
17/06:00am 19.5 18.1 13.4 68 3.5 E 13 20 7 11 1026.0 1026.0 0.0
17/05:30am 19.2 17.3 12.9 67 3.5 ESE 15 22 8 12 1025.7 1025.7 0.0
17/05:00am 19.0 17.4 13.8 72 3.0 ESE 15 19 8 10 1025.5 1025.5 0.0
17/04:30am 18.7 17.4 13.8 73 2.8 ESE 13 17 7 9 1025.3 1025.3 0.0
17/04:00am 18.9 17.9 13.5 71 3.1 ESE 11 17 6 9 1025.3 1025.3 0.0
17/03:30am 19.4 17.7 13.6 69 3.3 ESE 15 24 8 13 1025.3 1025.3 0.0
17/03:00am 19.5 17.7 13.4 68 3.5 ESE 15 24 8 13 1025.4 1025.4 0.0
17/02:30am 19.4 18.7 14.2 72 3.0 ESE 11 17 6 9 1025.7 1025.7 0.0
17/02:00am 19.4 18.3 14.2 72 3.0 ESE 13 17 7 9 1026.0 1026.0 0.0
17/01:30am 19.6 18.0 13.8 69 3.3 ESE 15 20 8 11 1026.3 1026.3 0.0
17/01:00am 19.3 18.5 14.1 72 3.0 ESE 11 17 6 9 1026.6 1026.6 0.0
17/12:30am 19.1 17.9 13.9 72 3.0 E 13 19 7 10 1026.9 1026.9 0.0
17/12:00am 18.5 17.8 14.2 76 2.5 ESE 11 15 6 8 1026.9 1026.9 0.0
 
Date/Time
EDT
Temp
°C
App
Temp
°C
Dew
Point
°C
Rel
Hum
%
Delta-T
°C
Wind Press
QNH
hPa
Press
MSL
hPa
Rain since
9am
mm
Dir  Spd
km/h
Gust
km/h
Spd
kts
Gust
kts
16/11:30pm 18.6 17.8 14.1 75 2.6 ESE 11 15 6 8 1026.9 1026.9 0.0
16/11:00pm 18.9 17.4 14.2 74 2.7 ESE 15 22 8 12 1026.9 1026.9 0.0
16/10:30pm 18.9 17.8 14.4 75 2.6 ESE 13 19 7 10 1026.9 1026.9 0.0
16/10:00pm 19.3 18.1 14.1 72 3.0 E 13 20 7 11 1027.2 1027.2 0.0
16/09:30pm 18.6 18.2 14.1 75 2.6 ESE 9 15 5 8 1027.0 1027.0 0.0
16/09:00pm 19.0 17.5 14.3 74 2.7 ESE 15 24 8 13 1026.8 1026.8 0.0
16/08:30pm 19.1 18.0 14.4 74 2.7 ESE 13 20 7 11 1026.7 1026.7 0.0
16/08:00pm 19.1 17.5 13.9 72 3.0 ESE 15 20 8 11 1026.6 1026.6 0.0
16/07:30pm 19.3 17.7 13.9 71 3.1 SE 15 22 8 12 1026.3 1026.3 0.0
16/07:00pm 19.4 18.2 14.0 71 3.1 SE 13 24 7 13 1026.2 1026.2 0.0
16/06:30pm 19.8 17.2 13.3 66 3.7 ESE 19 28 10 15 1026.0 1026.0 0.0
16/06:00pm 20.6 17.9 13.6 64 4.0 ESE 20 30 11 16 1026.0 1026.0 0.0
16/05:30pm 20.3 16.7 13.0 63 4.1 ESE 24 32 13 17 1025.5 1025.5 0.0
16/05:00pm 20.3 17.3 12.5 61 4.4 ESE 20 28 11 15 1025.6 1025.6 0.0
16/04:30pm 22.0 19.2 13.1 57 5.1 ESE 20 32 11 17 1025.4 1025.4 0.0
16/04:00pm 21.1 17.6 12.3 57 4.9 ESE 22 30 12 16 1025.2 1025.2 0.0
16/03:30pm 21.7 18.5 12.0 54 5.4 SE 20 30 11 16 1025.3 1025.3 0.0
16/03:00pm 21.9 18.3 13.0 57 5.1 ESE 24 37 13 20 1025.2 1025.2 0.0
16/02:30pm 20.9 17.8 12.3 58 4.8 ESE 20 33 11 18 1025.6 1025.6 0.0
16/02:00pm 22.3 19.1 13.1 56 5.3 ESE 22 32 12 17 1025.7 1025.7 0.0
16/01:30pm 22.6 19.4 13.1 55 5.5 ESE 22 32 12 17 1026.0 1026.0 0.0
16/01:00pm 22.2 18.6 11.9 52 5.8 SE 22 33 12 18 1026.1 1026.1 0.0
16/12:30pm 22.2 19.2 12.7 55 5.4 SE 20 32 11 17 1026.6 1026.6 0.0
16/12:00pm 22.3 18.7 13.1 56 5.3 E 24 30 13 16 1026.8 1026.8 0.0
16/11:30am 21.9 18.9 12.5 55 5.3 ESE 20 30 11 16 1027.0 1027.0 0.0
16/11:00am 22.3 19.5 13.1 56 5.3 ESE 20 28 11 15 1027.2 1027.2 0.0
16/10:30am 21.6 17.8 12.5 56 5.2 E 24 33 13 18 1027.4 1027.4 0.0
16/10:00am 22.1 19.6 14.0 60 4.7 ESE 20 30 11 16 1027.2 1027.2 0.0
16/09:30am 21.4 19.0 14.3 64 4.1 ESE 20 33 11 18 1026.6 1026.6 0.0
16/09:00am 21.1 18.7 14.3 65 3.9 ESE 20 26 11 14 1026.3 1026.3 0.0
16/08:30am 17.3 17.6 14.6 84 1.6 NW 6 9 3 5 1026.4 1026.4 0.0
16/08:00am 15.1 15.2 14.0 93 0.6 NW 6 9 3 5 1026.2 1026.2 0.0
16/07:30am 14.2 15.3 13.4 95 0.4 CALM 0 0 0 0 1025.8 1025.8 0.0
16/07:00am 13.1 13.9 12.6 97 0.3 CALM 0 2 0 1 1025.5 1025.5 0.0
16/06:30am 11.6 11.1 10.7 94 0.5 W 4 7 2 4 1024.9 1024.9 0.0
16/06:00am 12.3 12.5 11.7 96 0.3 NW 2 6 1 3 1024.5 1024.5 0.0
16/05:30am 12.4 12.2 11.8 96 0.3 NNW 4 7 2 4 1024.0 1024.0 0.0
16/05:00am 11.8 12.1 10.9 94 0.5 CALM 0 0 0 0 1023.6 1023.6 0.0
16/04:30am 12.4 13.0 11.8 96 0.3 CALM 0 0 0 0 1023.5 1023.5 0.0
16/04:00am 12.1 12.5 11.3 95 0.4 CALM 0 0 0 0 1023.5 1023.5 0.0
16/03:30am 12.0 12.4 11.2 95 0.4 CALM 0 0 0 0 1023.6 1023.6 0.0
16/03:00am 11.8 11.0 10.9 94 0.5 W 6 7 3 4 1023.9 1023.9 0.0
16/02:30am 12.4 12.5 11.5 94 0.5 W 2 7 1 4 1024.1 1024.1 0.0
16/02:00am 12.8 12.1 11.9 94 0.5 SW 7 9 4 5 1024.4 1024.4 0.0
16/01:30am 13.2 12.6 12.4 95 0.4 SW 7 9 4 5 1024.7 1024.7 0.0
16/01:00am 12.8 12.1 11.4 91 0.7 SW 6 6 3 3 1024.9 1024.9 0.0
16/12:30am 13.4 13.3 12.0 91 0.8 SE 4 9 2 5 1025.1 1025.1 0.0
16/12:00am 13.9 13.4 12.8 93 0.6 SW 7 7 4 4 1025.2 1025.2 0.0
 
Date/Time
EDT
Temp
°C
App
Temp
°C
Dew
Point
°C
Rel
Hum
%
Delta-T
°C
Wind Press
QNH
hPa
Press
MSL
hPa
Rain since
9am
mm
Dir  Spd
km/h
Gust
km/h
Spd
kts
Gust
kts
15/11:30pm 14.1 13.6 12.8 92 0.7 SW 7 9 4 5 1025.4 1025.4 0.0
15/11:00pm 14.5 14.0 12.7 89 1.0 SW 7 7 4 4 1025.4 1025.4 0.0
15/10:30pm 16.1 15.6 12.5 79 2.0 SE 7 11 4 6 1025.3 1025.3 0.0
15/10:00pm 17.4 15.9 11.9 70 3.0 ESE 11 13 6 7 1025.4 1025.4 0.0
15/09:30pm 17.9 16.1 12.1 69 3.2 SE 13 17 7 9 1025.2 1025.2 0.0
15/09:00pm 18.1 16.7 12.3 69 3.2 ESE 11 15 6 8 1025.1 1025.1 0.0
15/08:30pm 18.2 16.9 12.6 70 3.1 SE 11 15 6 8 1024.9 1024.9 0.0
15/08:00pm 18.2 17.4 12.9 71 3.0 SE 9 13 5 7 1024.6 1024.6 0.0
15/07:30pm 18.4 17.1 12.6 69 3.2 ESE 11 17 6 9 1024.4 1024.4 0.0
15/07:00pm 19.2 17.2 12.7 66 3.6 ESE 15 20 8 11 1024.1 1024.1 0.0
15/06:30pm 19.9 18.2 12.4 62 4.2 SE 13 24 7 13 1023.8 1023.8 0.0
15/06:00pm 19.7 17.3 12.7 64 3.9 ESE 17 22 9 12 1023.7 1023.7 0.0
15/05:30pm 20.2 17.2 13.6 66 3.8 ESE 22 30 12 16 1023.4 1023.4 0.0
15/05:00pm 21.4 18.9 14.1 63 4.2 ESE 20 32 11 17 1023.2 1023.2 0.0
15/04:30pm 20.7 18.3 13.9 65 3.9 SE 19 24 10 13 1023.1 1023.1 0.0
15/04:00pm 22.2 19.5 14.6 62 4.5 ESE 22 32 12 17 1022.9 1022.9 0.0
15/03:30pm 21.0 18.1 13.9 64 4.1 ESE 22 35 12 19 1022.8 1022.8 0.0
15/03:00pm 21.4 18.2 14.3 64 4.1 ESE 24 32 13 17 1022.8 1022.8 0.0
15/02:30pm 22.1 19.5 13.7 59 4.9 ESE 20 32 11 17 1022.8 1022.8 0.0
15/02:00pm 22.3 20.3 15.6 66 4.0 SE 20 33 11 18 1023.0 1023.0 0.0
15/01:30pm 22.3 20.2 15.2 64 4.2 ESE 20 32 11 17 1023.2 1023.2 0.0
15/01:00pm 21.5 18.7 14.2 63 4.2 E 22 32 12 17 1023.4 1023.4 0.0
15/12:30pm 23.2 21.3 15.8 63 4.5 ESE 20 26 11 14 1023.5 1023.5 0.0
15/12:00pm 22.9 20.6 14.7 60 4.8 ESE 20 32 11 17 1023.6 1023.6 0.0
15/11:30am 22.1 19.6 14.0 60 4.7 ESE 20 30 11 16 1023.7 1023.7 0.0
15/11:00am 22.0 19.3 14.6 63 4.3 ESE 22 35 12 19 1023.8 1023.8 0.0
15/10:30am 21.8 19.5 14.7 64 4.2 ESE 20 28 11 15 1023.7 1023.7 0.0
15/10:00am 22.4 20.0 15.3 64 4.2 E 22 33 12 18 1023.6 1023.6 0.0
15/09:30am 21.0 19.4 14.9 68 3.6 SE 17 24 9 13 1023.6 1023.6 0.0
15/09:00am 21.3 19.8 15.2 68 3.6 SE 17 26 9 14 1023.3 1023.3 0.0
15/08:30am 20.9 19.6 15.9 73 3.0 ESE 17 20 9 11 1023.0 1023.0 0.0
15/08:00am 17.6 18.5 16.1 91 0.9 W 6 7 3 4 1022.9 1022.9 0.0
15/07:30am 15.3 15.7 14.8 97 0.3 WNW 6 7 3 4 1022.6 1022.6 0.0
15/07:00am 14.4 15.6 13.9 97 0.3 CALM 0 0 0 0 1022.4 1022.4 0.0
15/06:30am 13.5 13.7 12.9 96 0.3 WNW 4 7 2 4 1022.2 1022.2 0.0
15/06:00am 13.4 14.2 12.6 95 0.4 CALM 0 0 0 0 1022.0 1022.0 0.0
15/05:30am 13.8 13.6 13.0 95 0.4 WNW 6 7 3 4 1022.1 1022.1 0.0
15/05:00am 14.2 14.0 13.6 96 0.3 WNW 7 9 4 5 1021.7 1021.7 0.0
15/04:30am 14.3 14.3 13.5 95 0.4 SW 6 7 3 4 1021.7 1021.7 0.0
15/04:00am 14.7 14.5 13.7 94 0.6 SW 7 7 4 4 1021.7 1021.7 0.0
15/03:30am 15.4 15.6 14.1 92 0.7 SSW 6 9 3 5 1021.8 1021.8 0.0
15/03:00am 17.0 17.1 13.9 82 1.8 SE 6 9 3 5 1021.9 1021.9 0.0
15/02:30am 18.2 17.5 14.3 78 2.2 E 11 15 6 8 1022.2 1022.2 0.0
15/02:00am 18.7 17.5 15.0 79 2.2 E 15 20 8 11 1022.4 1022.4 0.0
15/01:30am 18.7 17.4 13.6 72 2.9 ESE 13 17 7 9 1022.5 1022.5 0.0
15/01:00am 18.9 18.7 14.6 76 2.5 E 9 15 5 8 1022.6 1022.6 0.0
15/12:30am 19.0 18.2 14.1 73 2.8 E 11 15 6 8 1022.7 1022.7 0.0
15/12:00am 19.2 17.9 13.6 70 3.2 ESE 13 17 7 9 1022.7 1022.7 0.0
 
Date/Time
EDT
Temp
°C
App
Temp
°C
Dew
Point
°C
Rel
Hum
%
Delta-T
°C
Wind Press
QNH
hPa
Press
MSL
hPa
Rain since
9am
mm
Dir  Spd
km/h
Gust
km/h
Spd
kts
Gust
kts
14/11:30pm 18.5 18.2 14.4 77 2.4 ESE 9 11 5 6 1022.7 1022.7 0.0
14/11:00pm 18.3 17.4 13.8 75 2.6 ESE 11 15 6 8 1022.7 1022.7 0.0
14/10:30pm 18.3 17.4 13.8 75 2.6 ESE 11 15 6 8 1022.6 1022.6 0.0
14/10:00pm 18.1 17.8 14.4 79 2.1 SE 9 11 5 6 1022.6 1022.6 0.0
14/09:30pm 17.1 17.0 14.9 87 1.3 SE 9 13 5 7 1022.5 1022.5 0.0
14/09:00pm 16.8 17.6 15.8 94 0.6 S 6 9 3 5 1022.3 1022.3 0.0
14/08:30pm 16.9 18.2 15.2 90 1.0 SSW 2 7 1 4 1022.2 1022.2 0.0
14/08:00pm 17.4 18.1 15.6 89 1.1 S 6 7 3 4 1021.9 1021.9 0.0
14/07:30pm 17.5 17.8 15.0 85 1.5 S 7 9 4 5 1021.6 1021.6 0.0
14/07:00pm 18.7 18.7 15.2 80 2.0 SSE 9 13 5 7 1021.4 1021.4 0.0
14/06:30pm 19.4 19.5 15.5 78 2.3 SSE 9 13 5 7 1021.3 1021.3 0.0
14/06:00pm 20.0 19.8 15.6 76 2.6 SSE 11 20 6 11 1021.0 1021.0 0.0
14/05:30pm 20.4 19.6 16.0 76 2.6 SSE 15 22 8 12 1020.8 1020.8 0.0
14/05:00pm 20.5 19.5 15.7 74 2.8 SSE 15 22 8 12 1020.5 1020.5 0.0
14/04:30pm 20.7 19.4 15.9 74 2.9 SSE 17 22 9 12 1020.5 1020.5 0.0
14/04:00pm 20.8 19.0 15.4 71 3.2 SSE 19 26 10 14 1020.3 1020.3 0.0
14/03:30pm 20.7 18.5 14.8 69 3.5 SSE 20 26 11 14 1020.4 1020.4 0.0
14/03:00pm 20.9 18.7 14.8 68 3.6 SSE 20 28 11 15 1020.3 1020.3 0.0
14/02:30pm 21.2 20.0 16.2 73 3.0 S 17 24 9 13 1020.4 1020.4 0.0
14/02:00pm 20.8 18.9 15.8 73 3.0 SSE 20 28 11 15 1020.6 1020.6 0.0
14/01:30pm 20.5 19.5 16.5 78 2.4 S 17 24 9 13 1020.8 1020.8 0.0
14/01:00pm 20.6 19.0 16.0 75 2.7 S 19 28 10 15 1020.7 1020.7 0.0
14/12:30pm 20.8 18.2 16.0 74 2.9 S 24 32 13 17 1020.5 1020.5 0.0
14/12:00pm 21.9 20.2 17.3 75 2.8 SSE 22 32 12 17 1020.4 1020.4 0.0
14/11:30am 21.7 21.1 17.5 77 2.6 SSE 17 24 9 13 1020.3 1020.3 0.0
14/11:00am 21.1 19.9 17.1 78 2.4 SSE 19 28 10 15 1020.0 1020.0 0.0

Other Formats:

Comma delimited format used in spreadsheet applications
http://www.bom.gov.au/fwo/IDN60801/IDN60801.94786.axf

JavaScript Object Notation format (JSON) in row-major order
http://www.bom.gov.au/fwo/IDN60801/IDN60801.94786.json